VOE7ZM LPPR-LEBB
Flight info
| Callsign | VOE7ZM |
|---|---|
| Flight time | 0h 53m |
| Altitude | 34000 |
| Route | BELDU DCT ADORO DCT FITSE DCT NUBLO DCT RONSI M190 SNR |
| Aircraft | A320/M-SDE3FGHIRWY/LB1 |
Departure
| Time | 2026-05-01 11:29 |
|---|---|
| Airport | Francisco de Sá Carneiro Airport (LPPR) |
Arrival
| Time | 2026-05-01 12:22 |
|---|---|
| Airport | Bilbao Airport (LEBB) |
| Time | Latitude | Longitude | Altitude | Speed | Heading |
|---|---|---|---|---|---|
| 2026-05-01 10:44 | 41.23923 | -8.67322 | 235 ft | 0 kts | 123° |
| 2026-05-01 11:19 | 41.23924 | -8.67324 | 235 ft | 1 kts | 124° |
| 2026-05-01 11:20 | 41.23932 | -8.67340 | 235 ft | 2 kts | 123° |
| 2026-05-01 11:20 | 41.23940 | -8.67356 | 235 ft | 2 kts | 123° |
| 2026-05-01 11:20 | 41.23949 | -8.67373 | 235 ft | 2 kts | 124° |
| 2026-05-01 11:20 | 41.23957 | -8.67390 | 235 ft | 2 kts | 123° |
| 2026-05-01 11:21 | 41.23965 | -8.67406 | 235 ft | 2 kts | 123° |
| 2026-05-01 11:21 | 41.23976 | -8.67420 | 235 ft | 2 kts | 159° |
| 2026-05-01 11:21 | 41.23992 | -8.67423 | 235 ft | 2 kts | 189° |
| 2026-05-01 11:21 | 41.23999 | -8.67421 | 235 ft | 1 kts | 205° |
| 2026-05-01 11:22 | 41.24003 | -8.67418 | 235 ft | 0 kts | 200° |
| 2026-05-01 11:24 | 41.23999 | -8.67420 | 235 ft | 1 kts | 201° |
| 2026-05-01 11:24 | 41.23965 | -8.67444 | 235 ft | 5 kts | 212° |
| 2026-05-01 11:25 | 41.23925 | -8.67479 | 235 ft | 8 kts | 212° |
| 2026-05-01 11:25 | 41.23760 | -8.67458 | 235 ft | 15 kts | 170° |
| 2026-05-01 11:25 | 41.23650 | -8.67453 | 235 ft | 15 kts | 214° |
| 2026-05-01 11:26 | 41.23615 | -8.67588 | 235 ft | 15 kts | 259° |
| 2026-05-01 11:26 | 41.23603 | -8.67669 | 234 ft | 0 kts | 258° |
| 2026-05-01 11:27 | 41.23602 | -8.67678 | 235 ft | 2 kts | 258° |
| 2026-05-01 11:28 | 41.23595 | -8.67727 | 235 ft | 8 kts | 259° |
| 2026-05-01 11:28 | 41.23613 | -8.67803 | 234 ft | 12 kts | 348° |
| 2026-05-01 11:28 | 41.23888 | -8.67885 | 235 ft | 76 kts | 348° |
| 2026-05-01 11:29 | 41.25709 | -8.68361 | 514 ft | 163 kts | 348° |
| 2026-05-01 11:29 | 41.26842 | -8.68690 | 1066 ft | 170 kts | 346° |
| 2026-05-01 11:29 | 41.29210 | -8.69491 | 2336 ft | 180 kts | 347° |
| 2026-05-01 11:30 | 41.30450 | -8.69780 | 2971 ft | 185 kts | 351° |
| 2026-05-01 11:30 | 41.31804 | -8.69880 | 3445 ft | 199 kts | 11° |
| 2026-05-01 11:30 | 41.33012 | -8.68957 | 3912 ft | 211 kts | 54° |
| 2026-05-01 11:30 | 41.33528 | -8.67082 | 4403 ft | 224 kts | 84° |
| 2026-05-01 11:31 | 41.33635 | -8.64944 | 4934 ft | 241 kts | 89° |
| 2026-05-01 11:31 | 41.33711 | -8.62642 | 5503 ft | 256 kts | 88° |
| 2026-05-01 11:31 | 41.33821 | -8.60208 | 6105 ft | 270 kts | 88° |
| 2026-05-01 11:31 | 41.33963 | -8.57691 | 6930 ft | 274 kts | 87° |
| 2026-05-01 11:32 | 41.34124 | -8.55127 | 7723 ft | 279 kts | 86° |
| 2026-05-01 11:32 | 41.34296 | -8.52544 | 8501 ft | 284 kts | 86° |
| 2026-05-01 11:32 | 41.34478 | -8.49909 | 9262 ft | 289 kts | 87° |
| 2026-05-01 11:32 | 41.34666 | -8.47238 | 9992 ft | 293 kts | 87° |
| 2026-05-01 11:33 | 41.34858 | -8.44520 | 10671 ft | 301 kts | 87° |
| 2026-05-01 11:33 | 41.35057 | -8.41665 | 11076 ft | 318 kts | 87° |
| 2026-05-01 11:33 | 41.35270 | -8.38613 | 11439 ft | 335 kts | 86° |
| 2026-05-01 11:33 | 41.35491 | -8.35484 | 12012 ft | 343 kts | 86° |
| 2026-05-01 11:34 | 41.35720 | -8.32274 | 12712 ft | 346 kts | 87° |
| 2026-05-01 11:34 | 41.35949 | -8.29051 | 13401 ft | 350 kts | 87° |
| 2026-05-01 11:34 | 41.36177 | -8.25819 | 14075 ft | 353 kts | 87° |
| 2026-05-01 11:34 | 41.36409 | -8.22493 | 14725 ft | 357 kts | 88° |
| 2026-05-01 11:35 | 41.36640 | -8.19183 | 15310 ft | 361 kts | 88° |
| 2026-05-01 11:35 | 41.36872 | -8.15816 | 15944 ft | 365 kts | 87° |
| 2026-05-01 11:35 | 41.37106 | -8.12439 | 16523 ft | 369 kts | 88° |
| 2026-05-01 11:35 | 41.37341 | -8.09023 | 17077 ft | 374 kts | 88° |
| 2026-05-01 11:36 | 41.37580 | -8.05521 | 17632 ft | 378 kts | 88° |
| 2026-05-01 11:36 | 41.37819 | -8.02010 | 18164 ft | 382 kts | 88° |
| 2026-05-01 11:36 | 41.38060 | -7.98448 | 18687 ft | 386 kts | 87° |
| 2026-05-01 11:36 | 41.38302 | -7.94871 | 19219 ft | 389 kts | 88° |
| 2026-05-01 11:37 | 41.38546 | -7.91244 | 19742 ft | 392 kts | 88° |
| 2026-05-01 11:37 | 41.38792 | -7.87573 | 20257 ft | 396 kts | 88° |
| 2026-05-01 11:37 | 41.39035 | -7.83911 | 20749 ft | 399 kts | 87° |
| 2026-05-01 11:37 | 41.39281 | -7.80198 | 21238 ft | 402 kts | 87° |
| 2026-05-01 11:38 | 41.39530 | -7.76415 | 21712 ft | 405 kts | 87° |
| 2026-05-01 11:38 | 41.39775 | -7.72681 | 22171 ft | 408 kts | 87° |
| 2026-05-01 11:38 | 41.40025 | -7.68867 | 22622 ft | 411 kts | 87° |
| 2026-05-01 11:38 | 41.40275 | -7.65039 | 23062 ft | 414 kts | 87° |
| 2026-05-01 11:39 | 41.40523 | -7.61200 | 23487 ft | 417 kts | 88° |
| 2026-05-01 11:39 | 41.40772 | -7.57327 | 23909 ft | 420 kts | 88° |
| 2026-05-01 11:39 | 41.41023 | -7.53389 | 24343 ft | 423 kts | 88° |
| 2026-05-01 11:39 | 41.41274 | -7.49433 | 24763 ft | 426 kts | 88° |
| 2026-05-01 11:40 | 41.41523 | -7.45487 | 25161 ft | 429 kts | 87° |
| 2026-05-01 11:40 | 41.41773 | -7.41505 | 25551 ft | 432 kts | 87° |
| 2026-05-01 11:40 | 41.42023 | -7.37486 | 25938 ft | 434 kts | 87° |
| 2026-05-01 11:40 | 41.42246 | -7.33913 | 26275 ft | 436 kts | 88° |
| 2026-05-01 11:41 | 41.42492 | -7.29941 | 26624 ft | 439 kts | 88° |
| 2026-05-01 11:41 | 41.42740 | -7.25900 | 26976 ft | 441 kts | 88° |
| 2026-05-01 11:41 | 41.42992 | -7.21785 | 27326 ft | 443 kts | 88° |
| 2026-05-01 11:41 | 41.43246 | -7.17614 | 27673 ft | 446 kts | 88° |
| 2026-05-01 11:42 | 41.43496 | -7.13472 | 28001 ft | 448 kts | 88° |
| 2026-05-01 11:42 | 41.43747 | -7.09308 | 28331 ft | 450 kts | 88° |
| 2026-05-01 11:42 | 41.43995 | -7.05142 | 28643 ft | 452 kts | 88° |
| 2026-05-01 11:42 | 41.44242 | -7.00966 | 28950 ft | 454 kts | 88° |
| 2026-05-01 11:43 | 41.44493 | -6.96717 | 29259 ft | 456 kts | 88° |
| 2026-05-01 11:43 | 41.44740 | -6.92492 | 29550 ft | 458 kts | 88° |
| 2026-05-01 11:43 | 41.44989 | -6.88211 | 29847 ft | 459 kts | 88° |
| 2026-05-01 11:44 | 41.45482 | -6.79651 | 30410 ft | 463 kts | 88° |
| 2026-05-01 11:44 | 41.45726 | -6.75357 | 30665 ft | 464 kts | 88° |
| 2026-05-01 11:44 | 41.45970 | -6.71038 | 30925 ft | 466 kts | 88° |
| 2026-05-01 11:44 | 41.46216 | -6.66681 | 31171 ft | 468 kts | 88° |
| 2026-05-01 11:45 | 41.46458 | -6.62330 | 31398 ft | 470 kts | 88° |
| 2026-05-01 11:45 | 41.46700 | -6.57960 | 31646 ft | 471 kts | 88° |
| 2026-05-01 11:45 | 41.46942 | -6.53567 | 31988 ft | 470 kts | 88° |
| 2026-05-01 11:45 | 41.47181 | -6.49204 | 32331 ft | 469 kts | 88° |
| 2026-05-01 11:46 | 41.47416 | -6.44853 | 32604 ft | 469 kts | 88° |
| 2026-05-01 11:46 | 41.47647 | -6.40539 | 32818 ft | 471 kts | 88° |
| 2026-05-01 11:46 | 41.47950 | -6.36109 | 33053 ft | 473 kts | 85° |
| 2026-05-01 11:46 | 41.48377 | -6.32179 | 33259 ft | 474 kts | 82° |
| 2026-05-01 11:47 | 41.49038 | -6.27830 | 33490 ft | 475 kts | 78° |
| 2026-05-01 11:47 | 41.49891 | -6.23556 | 33704 ft | 477 kts | 75° |
| 2026-05-01 11:47 | 41.50941 | -6.19338 | 33899 ft | 478 kts | 71° |
| 2026-05-01 11:47 | 41.52166 | -6.15160 | 34095 ft | 479 kts | 70° |
| 2026-05-01 11:48 | 41.54705 | -6.06863 | 34138 ft | 480 kts | 69° |
| 2026-05-01 11:48 | 41.57174 | -5.98754 | 34138 ft | 479 kts | 69° |
| 2026-05-01 11:49 | 41.59666 | -5.90492 | 34135 ft | 478 kts | 69° |
| 2026-05-01 11:49 | 41.62129 | -5.82282 | 34138 ft | 477 kts | 69° |
| 2026-05-01 11:50 | 41.64609 | -5.73983 | 34141 ft | 477 kts | 69° |
| 2026-05-01 11:50 | 41.67093 | -5.65709 | 34136 ft | 478 kts | 67° |
| 2026-05-01 11:51 | 41.70546 | -5.58130 | 34137 ft | 480 kts | 50° |
| 2026-05-01 11:51 | 41.75408 | -5.52049 | 34141 ft | 478 kts | 34° |
| 2026-05-01 11:52 | 41.81271 | -5.47865 | 34144 ft | 476 kts | 21° |
| 2026-05-01 11:52 | 41.87442 | -5.44433 | 34143 ft | 476 kts | 21° |
| 2026-05-01 11:53 | 41.93581 | -5.41008 | 34141 ft | 476 kts | 21° |
| 2026-05-01 11:53 | 41.99721 | -5.37531 | 34144 ft | 476 kts | 21° |
| 2026-05-01 11:54 | 42.05554 | -5.34205 | 34144 ft | 475 kts | 22° |
| 2026-05-01 11:54 | 42.10531 | -5.31360 | 34145 ft | 476 kts | 22° |
| 2026-05-01 11:55 | 42.16381 | -5.28008 | 34150 ft | 476 kts | 22° |
| 2026-05-01 11:55 | 42.22535 | -5.24475 | 34151 ft | 476 kts | 22° |
| 2026-05-01 11:56 | 42.28654 | -5.20953 | 34154 ft | 476 kts | 22° |
| 2026-05-01 11:56 | 42.34795 | -5.17411 | 34156 ft | 476 kts | 22° |
| 2026-05-01 11:57 | 42.39891 | -5.14466 | 34161 ft | 476 kts | 22° |
| 2026-05-01 11:57 | 42.47055 | -5.10314 | 34165 ft | 476 kts | 22° |
| 2026-05-01 11:58 | 42.53183 | -5.06755 | 34164 ft | 476 kts | 22° |
| 2026-05-01 11:59 | 42.62344 | -5.01415 | 34154 ft | 475 kts | 22° |
| 2026-05-01 11:59 | 42.68447 | -4.97854 | 34151 ft | 476 kts | 22° |
| 2026-05-01 12:00 | 42.77560 | -4.92531 | 34156 ft | 476 kts | 22° |
| 2026-05-01 12:01 | 42.86700 | -4.87163 | 34162 ft | 475 kts | 22° |
| 2026-05-01 12:01 | 42.92795 | -4.83572 | 34165 ft | 474 kts | 22° |
| 2026-05-01 12:02 | 42.98864 | -4.79987 | 34163 ft | 474 kts | 22° |
| 2026-05-01 12:02 | 43.04928 | -4.76397 | 34168 ft | 474 kts | 22° |
| 2026-05-01 12:03 | 43.11016 | -4.72785 | 34176 ft | 474 kts | 22° |
| 2026-05-01 12:03 | 43.17063 | -4.69190 | 34177 ft | 474 kts | 22° |
| 2026-05-01 12:04 | 43.23152 | -4.65561 | 34168 ft | 473 kts | 22° |
| 2026-05-01 12:04 | 43.29142 | -4.61982 | 33695 ft | 463 kts | 22° |
| 2026-05-01 12:04 | 43.32090 | -4.60216 | 32796 ft | 466 kts | 22° |
| 2026-05-01 12:05 | 43.35078 | -4.58426 | 31802 ft | 468 kts | 22° |
| 2026-05-01 12:05 | 43.41018 | -4.54862 | 29062 ft | 470 kts | 22° |
| 2026-05-01 12:05 | 43.44026 | -4.53054 | 27308 ft | 475 kts | 23° |
| 2026-05-01 12:06 | 43.46818 | -4.50741 | 25301 ft | 482 kts | 40° |
| 2026-05-01 12:06 | 43.48925 | -4.47241 | 23310 ft | 479 kts | 63° |
| 2026-05-01 12:06 | 43.49942 | -4.43001 | 21933 ft | 457 kts | 85° |
| 2026-05-01 12:06 | 43.49785 | -4.38794 | 20845 ft | 432 kts | 105° |
| 2026-05-01 12:07 | 43.48747 | -4.35009 | 19547 ft | 418 kts | 115° |
| 2026-05-01 12:07 | 43.47827 | -4.31357 | 18118 ft | 415 kts | 105° |
| 2026-05-01 12:07 | 43.47472 | -4.28691 | 17307 ft | 409 kts | 100° |
| 2026-05-01 12:07 | 43.47190 | -4.25427 | 16640 ft | 393 kts | 98° |
| 2026-05-01 12:08 | 43.46942 | -4.21740 | 15734 ft | 380 kts | 97° |
| 2026-05-01 12:08 | 43.46720 | -4.18144 | 14675 ft | 374 kts | 97° |
| 2026-05-01 12:08 | 43.46507 | -4.14618 | 13578 ft | 368 kts | 97° |
| 2026-05-01 12:08 | 43.46295 | -4.11132 | 12502 ft | 362 kts | 97° |
| 2026-05-01 12:09 | 43.46083 | -4.07687 | 11459 ft | 355 kts | 97° |
| 2026-05-01 12:09 | 43.45874 | -4.04318 | 10365 ft | 349 kts | 97° |
| 2026-05-01 12:09 | 43.45669 | -4.01039 | 9417 ft | 339 kts | 97° |
| 2026-05-01 12:09 | 43.45468 | -3.97830 | 8815 ft | 321 kts | 97° |
| 2026-05-01 12:10 | 43.45278 | -3.94821 | 8338 ft | 303 kts | 97° |
| 2026-05-01 12:10 | 43.45110 | -3.89292 | 7886 ft | 284 kts | 91° |
| 2026-05-01 12:10 | 43.45214 | -3.86606 | 7581 ft | 280 kts | 87° |
| 2026-05-01 12:11 | 43.45547 | -3.81286 | 6867 ft | 276 kts | 86° |
| 2026-05-01 12:11 | 43.45717 | -3.78632 | 6505 ft | 274 kts | 86° |
| 2026-05-01 12:11 | 43.45881 | -3.76017 | 6184 ft | 271 kts | 86° |
| 2026-05-01 12:12 | 43.46043 | -3.73443 | 5966 ft | 269 kts | 86° |
| 2026-05-01 12:12 | 43.46204 | -3.70854 | 5568 ft | 269 kts | 86° |
| 2026-05-01 12:12 | 43.46363 | -3.68280 | 5206 ft | 268 kts | 86° |
| 2026-05-01 12:12 | 43.46520 | -3.65719 | 4873 ft | 266 kts | 86° |
| 2026-05-01 12:13 | 43.46677 | -3.63159 | 4546 ft | 263 kts | 86° |
| 2026-05-01 12:13 | 43.46830 | -3.60655 | 4486 ft | 262 kts | 86° |
| 2026-05-01 12:13 | 43.46983 | -3.58125 | 4474 ft | 263 kts | 86° |
| 2026-05-01 12:13 | 43.47135 | -3.55621 | 4473 ft | 263 kts | 86° |
| 2026-05-01 12:14 | 43.47290 | -3.53071 | 4476 ft | 262 kts | 86° |
| 2026-05-01 12:14 | 43.47440 | -3.50584 | 4477 ft | 262 kts | 86° |
| 2026-05-01 12:14 | 43.47590 | -3.48072 | 4476 ft | 262 kts | 86° |
| 2026-05-01 12:14 | 43.47741 | -3.45542 | 4477 ft | 261 kts | 86° |
| 2026-05-01 12:15 | 43.47864 | -3.43046 | 4487 ft | 261 kts | 91° |
| 2026-05-01 12:15 | 43.47722 | -3.40571 | 4486 ft | 260 kts | 101° |
| 2026-05-01 12:15 | 43.47208 | -3.38158 | 4487 ft | 259 kts | 112° |
| 2026-05-01 12:15 | 43.46498 | -3.35844 | 4486 ft | 259 kts | 114° |
| 2026-05-01 12:16 | 43.45839 | -3.33842 | 4484 ft | 259 kts | 116° |
| 2026-05-01 12:16 | 43.45056 | -3.31584 | 4477 ft | 259 kts | 117° |
| 2026-05-01 12:16 | 43.44245 | -3.29328 | 4486 ft | 259 kts | 117° |
| 2026-05-01 12:16 | 43.43430 | -3.27111 | 4468 ft | 259 kts | 118° |
| 2026-05-01 12:17 | 43.42605 | -3.24890 | 4481 ft | 259 kts | 118° |
| 2026-05-01 12:17 | 43.41796 | -3.22719 | 4480 ft | 247 kts | 118° |
| 2026-05-01 12:17 | 43.41028 | -3.20657 | 4460 ft | 233 kts | 118° |
| 2026-05-01 12:17 | 43.40295 | -3.18688 | 4277 ft | 227 kts | 118° |
| 2026-05-01 12:18 | 43.39570 | -3.16738 | 3965 ft | 227 kts | 117° |
| 2026-05-01 12:18 | 43.38847 | -3.14789 | 3656 ft | 226 kts | 117° |
| 2026-05-01 12:18 | 43.38124 | -3.12836 | 3348 ft | 225 kts | 117° |
| 2026-05-01 12:18 | 43.37419 | -3.10930 | 3041 ft | 221 kts | 117° |
| 2026-05-01 12:19 | 43.36742 | -3.09094 | 2733 ft | 208 kts | 117° |
| 2026-05-01 12:19 | 43.36096 | -3.07344 | 2459 ft | 198 kts | 117° |
| 2026-05-01 12:19 | 43.35503 | -3.05737 | 2288 ft | 181 kts | 117° |
| 2026-05-01 12:19 | 43.34953 | -3.04245 | 2045 ft | 169 kts | 117° |
| 2026-05-01 12:20 | 43.34435 | -3.02839 | 1788 ft | 158 kts | 117° |
| 2026-05-01 12:20 | 43.33950 | -3.01522 | 1555 ft | 148 kts | 116° |
| 2026-05-01 12:20 | 43.33504 | -3.00307 | 1344 ft | 137 kts | 116° |
| 2026-05-01 12:20 | 43.33078 | -2.99145 | 1174 ft | 134 kts | 116° |
| 2026-05-01 12:21 | 43.32649 | -2.97984 | 1008 ft | 135 kts | 116° |
| 2026-05-01 12:21 | 43.32234 | -2.96832 | 850 ft | 135 kts | 115° |
| 2026-05-01 12:21 | 43.31805 | -2.95684 | 643 ft | 135 kts | 117° |
| 2026-05-01 12:21 | 43.31376 | -2.94521 | 474 ft | 136 kts | 115° |
| 2026-05-01 12:22 | 43.30951 | -2.93351 | 299 ft | 136 kts | 116° |
| 2026-05-01 12:22 | 43.30522 | -2.92185 | 149 ft | 134 kts | 116° |
| 2026-05-01 12:22 | 43.30156 | -2.91181 | 142 ft | 97 kts | 116° |
| 2026-05-01 12:22 | 43.29942 | -2.90592 | 138 ft | 34 kts | 112° |
| 2026-05-01 12:23 | 43.29929 | -2.90294 | 139 ft | 21 kts | 87° |
| 2026-05-01 12:23 | 43.30009 | -2.90279 | 144 ft | 15 kts | 305° |
| 2026-05-01 12:23 | 43.30058 | -2.90410 | 145 ft | 15 kts | 294° |
| 2026-05-01 12:23 | 43.30106 | -2.90540 | 146 ft | 15 kts | 297° |
| 2026-05-01 12:24 | 43.30184 | -2.90550 | 150 ft | 11 kts | 25° |
| 2026-05-01 12:24 | 43.30244 | -2.90543 | 153 ft | 8 kts | 338° |
| 2026-05-01 12:24 | 43.30297 | -2.90571 | 156 ft | 8 kts | 337° |
| 2026-05-01 12:24 | 43.30347 | -2.90626 | 158 ft | 11 kts | 301° |
| 2026-05-01 12:25 | 43.30381 | -2.90722 | 159 ft | 0 kts | 297° |
| 2026-05-01 12:25 | 43.30387 | -2.90737 | 159 ft | 4 kts | 298° |
| 2026-05-01 12:25 | 43.30405 | -2.90809 | 160 ft | 12 kts | 267° |
| 2026-05-01 12:26 | 43.30448 | -2.90822 | 163 ft | 7 kts | 25° |
| 2026-05-01 12:26 | 43.30473 | -2.90805 | 164 ft | 0 kts | 26° |